首页
METAR-TAF:

METAR-TAF

机场 :

安东尼奥·马塞奥机场

圣地亚哥-德古巴, 古巴

纬度: 19-58N, 经度: 075-51W, 海拔: 69米

当前天气观测

该预报发布于57分钟前的14:50 UTC
风速6节,风向东南,在之间变化
温度 30°C
湿度 70%
气压 1016 hPa
能見度: 9000
少量云层高于2000英尺
多云层高于8000英尺

METAR: MUCU 241450Z 14006KT 090V190 9000 FEW020 BKN080 30/24 Q1016

时间: 11:47 (15:47 UTC)

预报

该预报发布于4小时和47分钟前的11:00 UTC
预报有效从24日的 12点(UTC)到 25日的 12点(UTC)
风速4节,风向多变
能見度: 9000
散云层高于2000英尺
短暂存在
从 24日的 18点(UTC)到 24日的 24点(UTC)
风速8节,风向东南
散云层高于1800英尺, 积雨云.
多云层高于2000英尺

TAF: MUCU 241100Z 2412/2512 VRB04KT 9000 SCT020 TEMPO 2418/2424 14008KT SCT018CB BKN020

超过4000个机场的气象观测和天气预报(METAR&TAF报告)。

可查询的气象台以黄色和红色小点在地图上表示。

将鼠标移到小点上方,可查看气象台名称。

然后点击查看天气观测和预报。

如需切换地图:点击带黑十字的绿色按钮放大地图;点击带横线的绿色按钮缩小地图;或者点击绿色箭头查看邻近地区的地图。


METAR-TAF: